Fort Lauderdale Hollywood International Airport
KFLL : now visible

Airfield :











YOU CAN JOIN US ON...

 
LOGIN :

Register | Disclaimer

   EN    FR    IT 

 









Legend :    VFR   Marginal VFR   IFR   Intensive IFR   Very Intensive IFR
Visi :
Ceiling :
>= 8 km
>= 3000ft
5 to 8 km
1000 to 3000 ft
1500m to 5 km
500 to 1000 ft
800 to 1500m
200 to 500 ft
< 800m
< 200 ft
Symbols :   Thunderstorms  Fog  Heavy snow  Heavy precipitations  Wind > 20 kt






- Airport Elevation : 9 ft
- IATA code : FLL


KFLL - Fort Lauderdale Hollywood International

CURRENT METAR :
  • 121753Z 13010KT 10SM FEW035 SCT060 SCT110 BKN250 29/26 A3004 RMK AO2 LTG DSNT W RAB12E41 TSB15E47 SLP171 CB DSNT W MOV N P0005 60005 T02940256 10311 20278 58010

EXPIRED METARs :
  • 121747Z 14012KT 10SM FEW035 SCT060 SCT110 BKN250 29/26 A3004 RMK AO2 LTG DSNT W RAB12E41 TSB15E47 P0005
  • 121715Z 14011KT 10SM -TSRA FEW030CB SCT110 BKN250 29/24 A3005 RMK AO2 RAB12 TSB15 OCNL LTGICCG W-NW TS W-NW MOV N P0000 T02940244
  • 121653Z 13013KT 10SM FEW030TCU FEW090 BKN250 31/24 A3005 RMK AO2 SLP174 TCU SW-W T03110239
  • 121553Z COR 13010KT 10SM FEW030 FEW060 FEW090 BKN250 30/24 A3007 RMK AO2 RAB39E51 SLP181 P0000 T03000244

TAF KFLL
Valid from the 12 at 18:00 until the 14 at 00:00 UTC


121751Z 1218/1324 14012KT P6SM SHRA VCTS SCT030CB BKN050
FM130200 VRB03KT P6SM SCT030 SCT250
FM131600 16008KT P6SM VCSH SCT030 BKN050
KZMA FIR / North America



MET'MAP, your aeronautical weather chart ! - Copyright ORBIFLY December 2007 - Disclaimer

ORBIFLY MET'MAP TEAM :

Programming & Development : Alexandra Zaïnal
Concept & original design : Baudouin d'Aumeries
Assistance for programming : Marc-Olivier Méhu
Technical & hardware support : Manuel Goepfert

Contact : metmap@orbifly.com




SOURCES & CREDITS :

   NOAA       Earth
Advisory